Wabowden, Canada
Current Conditions -  °F | °C
As of 11:00 PM on Saturday 22 Nov 2014 (Local Time) from CYTH Reporting Station
Scattered Clouds Scattered Clouds  
Wind Chill: -11°   Ceiling: Unl
Heat Index: -11°   Visibility: 15mi
Dew Point: -17°   Wind: 0mph
Humidity: 77%   Direction: NA
Pressure: 29.78"   Gusts: NA
Location:  54.92°N, 98.63°W
Report Text: CYTH 230500Z 00000KT 15SM SCT230 M24/M27 A2978 RMK CI3 SLP113
Loading
Personal Weather Stations






























Interactive Weather Map New forecast layout! Learn more

10-Day Weather Forecast

Advertisements
Track Severe Weather on mobile